Accueil
METAR-TAF:

METAR-TAF

Aéroports :

Woensdrecht, Pays-Bas

latitude: 51-27N, longitude: 004-20E, altitude: 20 m

Observation

Le bulletin a été fait il y a 8 minutes, à 13:25 UTC
Vent 11 kt de sud-ouest
Température 10°C
Humidité 93%
Pression 1011 hPa
Visibilité: 8000 m
Quelques nuages à une hauteur de 1500 ft
Nuages fragmentés à une hauteur de 2000 ft
Ciel couvert à une hauteur de 2400 ft
averses de pluie, forte bruine

METAR: EHWO 221325Z AUTO 23011KT 8000 SHRA +DZ FEW015 BKN020 OVC024 10/09 Q1011 WHT

Heure: 15:33 (13:33 UTC)


TAF: absent

Observations et prévisions météorologiques de plus de 4000 aéroports (messages METAR et TAF).

Les stations disponibles sont représentées par des disques jaunes et rouges sur la carte.

Passer la souris dessus pour voir le nom de la station.

Cliquer dessus pour voir les observations et prévisions météorologiques.

Pour changer de carte: cliquez sur les boutons verts avec une croix noire pour zoomer, sur le bouton vert avec un tiret pour effectuer un zoom arrière, ou sur les flèches vertes pour les cartes adjacentes.


METAR-TAF: